WV24 weather

Allegheny Mining Heliport
Hartmansville, West Virginia, United States

Public forecast

Using degrees Fahrenheit for public forecast. Weather courtesy of forecast.io.

Closest aviation weather report (METAR) to Allegheny Mining Heliport

Report is more than 6 hours old.

Closest report is Moran Field, 11.8 nm (21.9 km) NNE. Retrieved 2012/02/29 06:00 UTC (8 years ago):

MD99 290600Z 00000KT 6000 -RA FEW018 SCT070 23/22 Q1020

Closest aviation forecast (TAF) to Allegheny Mining Heliport

Closest forecast is Morgantown Municipal Walter L. Bill Hart Field, 39.6 nm (73.3 km) WNW. Retrieved 2020-02-24 00:22 UTC (2 hours ago):

TAF KMGW 232320Z 2400/2424 22006KT P6SM BKN050